sensor_id;sensor_type;location;lat;lon;timestamp;P1;durP1;ratioP1;P2;durP2;ratioP2
14167;SDS011;7163;50.626;12.922;2023-02-19T00:04:53;10.40;;;5.97;;
14167;SDS011;7163;50.626;12.922;2023-02-19T00:09:54;11.00;;;6.70;;
14167;SDS011;7163;50.626;12.922;2023-02-19T00:14:55;9.70;;;6.20;;
14167;SDS011;7163;50.626;12.922;2023-02-19T00:19:56;8.83;;;5.50;;
14167;SDS011;7163;50.626;12.922;2023-02-19T00:24:57;11.57;;;6.67;;
14167;SDS011;7163;50.626;12.922;2023-02-19T00:29:57;10.20;;;6.73;;
14167;SDS011;7163;50.626;12.922;2023-02-19T00:34:57;9.00;;;6.00;;
14167;SDS011;7163;50.626;12.922;2023-02-19T00:39:58;10.03;;;5.93;;
14167;SDS011;7163;50.626;12.922;2023-02-19T00:44:58;8.97;;;5.50;;
14167;SDS011;7163;50.626;12.922;2023-02-19T00:49:59;7.90;;;5.10;;
14167;SDS011;7163;50.626;12.922;2023-02-19T00:54:59;8.00;;;4.60;;
14167;SDS011;7163;50.626;12.922;2023-02-19T01:00:00;7.20;;;4.50;;
14167;SDS011;7163;50.626;12.922;2023-02-19T01:05:07;6.53;;;4.50;;
14167;SDS011;7163;50.626;12.922;2023-02-19T01:10:08;6.37;;;4.53;;
14167;SDS011;7163;50.626;12.922;2023-02-19T01:15:08;7.53;;;5.23;;
14167;SDS011;7163;50.626;12.922;2023-02-19T01:20:09;7.53;;;5.30;;
14167;SDS011;7163;50.626;12.922;2023-02-19T01:25:09;9.13;;;5.37;;
14167;SDS011;7163;50.626;12.922;2023-02-19T01:30:10;7.17;;;5.03;;
14167;SDS011;7163;50.626;12.922;2023-02-19T01:35:11;6.20;;;4.60;;
14167;SDS011;7163;50.626;12.922;2023-02-19T01:40:11;7.30;;;4.80;;
14167;SDS011;7163;50.626;12.922;2023-02-19T01:45:20;6.10;;;4.37;;
14167;SDS011;7163;50.626;12.922;2023-02-19T01:50:32;6.83;;;4.73;;
14167;SDS011;7163;50.626;12.922;2023-02-19T01:55:45;9.70;;;6.10;;
14167;SDS011;7163;50.626;12.922;2023-02-19T02:00:46;8.83;;;6.10;;
14167;SDS011;7163;50.626;12.922;2023-02-19T02:11:11;9.30;;;6.50;;
14167;SDS011;7163;50.626;12.922;2023-02-19T02:22:24;10.47;;;7.27;;
14167;SDS011;7163;50.626;12.922;2023-02-19T02:32:24;14.70;;;8.90;;
14167;SDS011;7163;50.626;12.922;2023-02-19T02:37:27;17.73;;;9.63;;
14167;SDS011;7163;50.626;12.922;2023-02-19T02:42:29;13.53;;;9.07;;
14167;SDS011;7163;50.626;12.922;2023-02-19T02:47:30;12.07;;;8.23;;
14167;SDS011;7163;50.626;12.922;2023-02-19T02:52:44;13.17;;;8.57;;
14167;SDS011;7163;50.626;12.922;2023-02-19T02:58:06;18.67;;;8.50;;
14167;SDS011;7163;50.626;12.922;2023-02-19T03:03:07;15.00;;;8.73;;
14167;SDS011;7163;50.626;12.922;2023-02-19T03:08:14;13.17;;;8.27;;
14167;SDS011;7163;50.626;12.922;2023-02-19T03:13:27;14.20;;;8.97;;
14167;SDS011;7163;50.626;12.922;2023-02-19T03:18:52;17.47;;;9.40;;
14167;SDS011;7163;50.626;12.922;2023-02-19T03:24:12;14.03;;;8.70;;
14167;SDS011;7163;50.626;12.922;2023-02-19T03:29:32;16.07;;;9.77;;
14167;SDS011;7163;50.626;12.922;2023-02-19T03:34:58;18.40;;;10.90;;
14167;SDS011;7163;50.626;12.922;2023-02-19T03:39:59;18.20;;;11.17;;
14167;SDS011;7163;50.626;12.922;2023-02-19T03:50:17;17.67;;;10.73;;
14167;SDS011;7163;50.626;12.922;2023-02-19T04:00:37;19.17;;;11.37;;
14167;SDS011;7163;50.626;12.922;2023-02-19T04:05:44;20.10;;;12.17;;
14167;SDS011;7163;50.626;12.922;2023-02-19T04:10:47;22.40;;;12.03;;
14167;SDS011;7163;50.626;12.922;2023-02-19T04:15:48;19.03;;;11.90;;
14167;SDS011;7163;50.626;12.922;2023-02-19T04:20:50;17.83;;;11.60;;
14167;SDS011;7163;50.626;12.922;2023-02-19T04:25:52;19.57;;;11.90;;
14167;SDS011;7163;50.626;12.922;2023-02-19T04:30:55;23.70;;;13.13;;
14167;SDS011;7163;50.626;12.922;2023-02-19T04:35:55;19.63;;;11.70;;
14167;SDS011;7163;50.626;12.922;2023-02-19T04:40:56;18.13;;;11.40;;
14167;SDS011;7163;50.626;12.922;2023-02-19T04:46:00;19.50;;;11.73;;
14167;SDS011;7163;50.626;12.922;2023-02-19T04:51:07;20.47;;;11.50;;
14167;SDS011;7163;50.626;12.922;2023-02-19T04:56:10;17.40;;;9.90;;
14167;SDS011;7163;50.626;12.922;2023-02-19T05:01:12;16.23;;;9.53;;
14167;SDS011;7163;50.626;12.922;2023-02-19T05:06:13;26.20;;;11.33;;
14167;SDS011;7163;50.626;12.922;2023-02-19T05:11:14;16.20;;;10.33;;
14167;SDS011;7163;50.626;12.922;2023-02-19T05:16:14;19.47;;;10.50;;
14167;SDS011;7163;50.626;12.922;2023-02-19T05:21:15;17.20;;;9.80;;
14167;SDS011;7163;50.626;12.922;2023-02-19T05:26:17;17.27;;;10.50;;
14167;SDS011;7163;50.626;12.922;2023-02-19T05:31:20;18.33;;;10.70;;
14167;SDS011;7163;50.626;12.922;2023-02-19T05:36:21;17.70;;;10.20;;
14167;SDS011;7163;50.626;12.922;2023-02-19T05:41:23;21.13;;;10.70;;
14167;SDS011;7163;50.626;12.922;2023-02-19T05:46:27;17.73;;;9.80;;
14167;SDS011;7163;50.626;12.922;2023-02-19T05:51:28;16.23;;;10.00;;
14167;SDS011;7163;50.626;12.922;2023-02-19T05:56:30;15.10;;;8.93;;
14167;SDS011;7163;50.626;12.922;2023-02-19T06:01:32;14.97;;;9.20;;
14167;SDS011;7163;50.626;12.922;2023-02-19T06:06:33;15.90;;;9.80;;
14167;SDS011;7163;50.626;12.922;2023-02-19T06:11:34;17.70;;;10.33;;
14167;SDS011;7163;50.626;12.922;2023-02-19T06:16:35;15.10;;;9.33;;
14167;SDS011;7163;50.626;12.922;2023-02-19T06:21:35;16.53;;;9.50;;
14167;SDS011;7163;50.626;12.922;2023-02-19T06:26:36;15.07;;;8.43;;
14167;SDS011;7163;50.626;12.922;2023-02-19T06:31:37;13.13;;;7.30;;
14167;SDS011;7163;50.626;12.922;2023-02-19T06:36:37;11.77;;;7.13;;
14167;SDS011;7163;50.626;12.922;2023-02-19T06:41:38;10.87;;;7.13;;
14167;SDS011;7163;50.626;12.922;2023-02-19T06:46:40;12.60;;;6.70;;
14167;SDS011;7163;50.626;12.922;2023-02-19T06:51:41;6.17;;;4.57;;
14167;SDS011;7163;50.626;12.922;2023-02-19T06:56:41;5.60;;;3.40;;
14167;SDS011;7163;50.626;12.922;2023-02-19T07:01:42;15.43;;;8.83;;
14167;SDS011;7163;50.626;12.922;2023-02-19T07:06:43;8.40;;;4.90;;
14167;SDS011;7163;50.626;12.922;2023-02-19T07:11:44;3.43;;;2.10;;
14167;SDS011;7163;50.626;12.922;2023-02-19T07:16:44;4.37;;;3.23;;
14167;SDS011;7163;50.626;12.922;2023-02-19T07:21:48;7.77;;;5.40;;
14167;SDS011;7163;50.626;12.922;2023-02-19T07:26:48;4.80;;;3.13;;
14167;SDS011;7163;50.626;12.922;2023-02-19T07:31:49;3.40;;;2.83;;
14167;SDS011;7163;50.626;12.922;2023-02-19T07:36:49;11.30;;;6.57;;
14167;SDS011;7163;50.626;12.922;2023-02-19T07:41:50;4.10;;;3.70;;
14167;SDS011;7163;50.626;12.922;2023-02-19T07:46:50;2.70;;;2.50;;
14167;SDS011;7163;50.626;12.922;2023-02-19T07:51:50;7.83;;;3.47;;
14167;SDS011;7163;50.626;12.922;2023-02-19T07:56:51;2.53;;;2.30;;
14167;SDS011;7163;50.626;12.922;2023-02-19T08:01:51;49.10;;;22.90;;
14167;SDS011;7163;50.626;12.922;2023-02-19T08:07:10;9.37;;;4.60;;
14167;SDS011;7163;50.626;12.922;2023-02-19T08:12:10;42.90;;;20.63;;
14167;SDS011;7163;50.626;12.922;2023-02-19T08:17:30;5.50;;;3.60;;
14167;SDS011;7163;50.626;12.922;2023-02-19T08:22:30;16.10;;;8.40;;
14167;SDS011;7163;50.626;12.922;2023-02-19T08:27:30;4.07;;;2.87;;
14167;SDS011;7163;50.626;12.922;2023-02-19T08:32:31;7.20;;;3.70;;
14167;SDS011;7163;50.626;12.922;2023-02-19T08:37:31;5.37;;;3.47;;
14167;SDS011;7163;50.626;12.922;2023-02-19T08:42:33;2.67;;;2.40;;
14167;SDS011;7163;50.626;12.922;2023-02-19T08:47:34;4.60;;;3.30;;
14167;SDS011;7163;50.626;12.922;2023-02-19T08:52:35;9.23;;;3.73;;
14167;SDS011;7163;50.626;12.922;2023-02-19T08:57:35;7.37;;;4.83;;
14167;SDS011;7163;50.626;12.922;2023-02-19T09:02:38;13.23;;;8.60;;
14167;SDS011;7163;50.626;12.922;2023-02-19T09:07:39;7.07;;;4.43;;
14167;SDS011;7163;50.626;12.922;2023-02-19T09:12:40;10.83;;;5.43;;
14167;SDS011;7163;50.626;12.922;2023-02-19T09:17:41;6.73;;;4.50;;
14167;SDS011;7163;50.626;12.922;2023-02-19T09:22:44;11.43;;;6.87;;
14167;SDS011;7163;50.626;12.922;2023-02-19T09:27:48;14.13;;;10.20;;
14167;SDS011;7163;50.626;12.922;2023-02-19T09:32:49;3.43;;;2.77;;
14167;SDS011;7163;50.626;12.922;2023-02-19T09:37:49;3.33;;;2.80;;
14167;SDS011;7163;50.626;12.922;2023-02-19T09:42:50;5.17;;;3.50;;
14167;SDS011;7163;50.626;12.922;2023-02-19T09:47:57;10.03;;;6.37;;
14167;SDS011;7163;50.626;12.922;2023-02-19T09:52:58;4.00;;;3.10;;
14167;SDS011;7163;50.626;12.922;2023-02-19T09:58:12;10.23;;;7.30;;
14167;SDS011;7163;50.626;12.922;2023-02-19T10:03:21;5.73;;;4.00;;
14167;SDS011;7163;50.626;12.922;2023-02-19T10:08:24;8.20;;;6.03;;
14167;SDS011;7163;50.626;12.922;2023-02-19T10:13:29;7.20;;;5.30;;
14167;SDS011;7163;50.626;12.922;2023-02-19T10:18:37;5.83;;;3.83;;
14167;SDS011;7163;50.626;12.922;2023-02-19T10:23:40;5.43;;;3.80;;
14167;SDS011;7163;50.626;12.922;2023-02-19T10:28:40;3.70;;;3.20;;
14167;SDS011;7163;50.626;12.922;2023-02-19T10:33:48;5.53;;;3.53;;
14167;SDS011;7163;50.626;12.922;2023-02-19T10:38:50;9.13;;;6.13;;
14167;SDS011;7163;50.626;12.922;2023-02-19T10:48:54;15.13;;;7.80;;
14167;SDS011;7163;50.626;12.922;2023-02-19T10:54:04;10.03;;;5.90;;
14167;SDS011;7163;50.626;12.922;2023-02-19T10:59:25;12.97;;;7.40;;
14167;SDS011;7163;50.626;12.922;2023-02-19T11:04:30;12.70;;;7.53;;
14167;SDS011;7163;50.626;12.922;2023-02-19T11:09:37;15.47;;;8.20;;
14167;SDS011;7163;50.626;12.922;2023-02-19T11:14:45;7.53;;;4.87;;
14167;SDS011;7163;50.626;12.922;2023-02-19T11:19:45;28.00;;;10.70;;
14167;SDS011;7163;50.626;12.922;2023-02-19T11:24:48;13.03;;;7.03;;
14167;SDS011;7163;50.626;12.922;2023-02-19T11:29:50;11.27;;;5.83;;
14167;SDS011;7163;50.626;12.922;2023-02-19T11:34:51;16.97;;;9.00;;
14167;SDS011;7163;50.626;12.922;2023-02-19T11:39:51;23.77;;;10.93;;
14167;SDS011;7163;50.626;12.922;2023-02-19T12:01:22;9.07;;;5.80;;
14167;SDS011;7163;50.626;12.922;2023-02-19T12:12:04;9.43;;;6.17;;
14167;SDS011;7163;50.626;12.922;2023-02-19T12:17:13;7.87;;;5.17;;
14167;SDS011;7163;50.626;12.922;2023-02-19T12:22:26;8.53;;;5.50;;
14167;SDS011;7163;50.626;12.922;2023-02-19T12:33:09;20.80;;;9.50;;
14167;SDS011;7163;50.626;12.922;2023-02-19T12:43:22;11.17;;;6.57;;
14167;SDS011;7163;50.626;12.922;2023-02-19T12:53:41;10.10;;;4.80;;
14167;SDS011;7163;50.626;12.922;2023-02-19T12:58:52;13.03;;;7.07;;
14167;SDS011;7163;50.626;12.922;2023-02-19T13:14:39;18.07;;;10.67;;
14167;SDS011;7163;50.626;12.922;2023-02-19T13:19:43;11.60;;;7.47;;
14167;SDS011;7163;50.626;12.922;2023-02-19T13:24:44;14.17;;;8.30;;
14167;SDS011;7163;50.626;12.922;2023-02-19T13:30:08;23.17;;;10.40;;
14167;SDS011;7163;50.626;12.922;2023-02-19T13:35:25;24.00;;;12.97;;
14167;SDS011;7163;50.626;12.922;2023-02-19T13:40:29;20.17;;;10.80;;
14167;SDS011;7163;50.626;12.922;2023-02-19T13:45:33;16.87;;;9.37;;
14167;SDS011;7163;50.626;12.922;2023-02-19T13:50:37;30.73;;;15.43;;
14167;SDS011;7163;50.626;12.922;2023-02-19T14:00:50;52.43;;;26.30;;
14167;SDS011;7163;50.626;12.922;2023-02-19T14:06:07;15.50;;;9.27;;
14167;SDS011;7163;50.626;12.922;2023-02-19T14:11:11;10.40;;;6.57;;
14167;SDS011;7163;50.626;12.922;2023-02-19T14:21:51;16.93;;;9.43;;
14167;SDS011;7163;50.626;12.922;2023-02-19T14:26:51;13.83;;;8.80;;
14167;SDS011;7163;50.626;12.922;2023-02-19T14:32:01;15.50;;;8.73;;
14167;SDS011;7163;50.626;12.922;2023-02-19T14:37:08;9.47;;;5.80;;
14167;SDS011;7163;50.626;12.922;2023-02-19T14:42:24;12.47;;;6.00;;
14167;SDS011;7163;50.626;12.922;2023-02-19T14:47:31;23.37;;;13.77;;
14167;SDS011;7163;50.626;12.922;2023-02-19T14:52:36;31.63;;;15.73;;
14167;SDS011;7163;50.626;12.922;2023-02-19T14:57:47;23.23;;;14.37;;
14167;SDS011;7163;50.626;12.922;2023-02-19T15:02:50;18.53;;;11.33;;
14167;SDS011;7163;50.626;12.922;2023-02-19T15:07:55;26.83;;;16.23;;
14167;SDS011;7163;50.626;12.922;2023-02-19T15:12:58;17.13;;;11.73;;
14167;SDS011;7163;50.626;12.922;2023-02-19T15:18:01;17.20;;;11.73;;
14167;SDS011;7163;50.626;12.922;2023-02-19T15:23:06;16.60;;;11.20;;
14167;SDS011;7163;50.626;12.922;2023-02-19T15:33:23;17.57;;;12.40;;
14167;SDS011;7163;50.626;12.922;2023-02-19T15:38:26;26.33;;;19.53;;
14167;SDS011;7163;50.626;12.922;2023-02-19T15:43:28;21.40;;;15.50;;
14167;SDS011;7163;50.626;12.922;2023-02-19T15:48:37;26.20;;;18.77;;
14167;SDS011;7163;50.626;12.922;2023-02-19T15:53:42;35.53;;;22.43;;
14167;SDS011;7163;50.626;12.922;2023-02-19T15:58:50;21.90;;;14.80;;
14167;SDS011;7163;50.626;12.922;2023-02-19T16:03:52;19.73;;;13.77;;
14167;SDS011;7163;50.626;12.922;2023-02-19T16:19:27;21.10;;;13.23;;
14167;SDS011;7163;50.626;12.922;2023-02-19T16:24:31;16.83;;;10.80;;
14167;SDS011;7163;50.626;12.922;2023-02-19T16:29:40;16.27;;;9.40;;
14167;SDS011;7163;50.626;12.922;2023-02-19T16:39:41;17.07;;;10.37;;
14167;SDS011;7163;50.626;12.922;2023-02-19T16:44:42;18.27;;;10.97;;
14167;SDS011;7163;50.626;12.922;2023-02-19T16:49:43;15.23;;;9.93;;
14167;SDS011;7163;50.626;12.922;2023-02-19T16:54:43;20.10;;;10.80;;
14167;SDS011;7163;50.626;12.922;2023-02-19T16:59:44;22.03;;;15.33;;
14167;SDS011;7163;50.626;12.922;2023-02-19T17:04:45;13.80;;;9.00;;
14167;SDS011;7163;50.626;12.922;2023-02-19T17:09:46;63.33;;;31.30;;
14167;SDS011;7163;50.626;12.922;2023-02-19T17:14:46;284.40;;;94.57;;
14167;SDS011;7163;50.626;12.922;2023-02-19T17:19:47;190.30;;;63.00;;
14167;SDS011;7163;50.626;12.922;2023-02-19T17:24:47;62.90;;;28.97;;
14167;SDS011;7163;50.626;12.922;2023-02-19T17:29:48;31.13;;;16.63;;
14167;SDS011;7163;50.626;12.922;2023-02-19T17:34:48;35.43;;;19.70;;
14167;SDS011;7163;50.626;12.922;2023-02-19T17:39:48;36.53;;;20.87;;
14167;SDS011;7163;50.626;12.922;2023-02-19T17:44:49;16.73;;;10.63;;
14167;SDS011;7163;50.626;12.922;2023-02-19T17:49:51;37.87;;;20.80;;
14167;SDS011;7163;50.626;12.922;2023-02-19T17:54:52;27.50;;;16.23;;
14167;SDS011;7163;50.626;12.922;2023-02-19T17:59:54;18.90;;;11.10;;
14167;SDS011;7163;50.626;12.922;2023-02-19T18:04:55;19.33;;;11.23;;
14167;SDS011;7163;50.626;12.922;2023-02-19T18:09:55;16.17;;;9.97;;
14167;SDS011;7163;50.626;12.922;2023-02-19T18:14:55;18.27;;;12.60;;
14167;SDS011;7163;50.626;12.922;2023-02-19T18:19:56;27.10;;;16.27;;
14167;SDS011;7163;50.626;12.922;2023-02-19T18:24:56;20.10;;;11.83;;
14167;SDS011;7163;50.626;12.922;2023-02-19T18:29:57;24.20;;;13.57;;
14167;SDS011;7163;50.626;12.922;2023-02-19T18:34:58;18.13;;;11.37;;
14167;SDS011;7163;50.626;12.922;2023-02-19T18:39:59;19.67;;;12.53;;
14167;SDS011;7163;50.626;12.922;2023-02-19T18:45:00;21.03;;;9.93;;
14167;SDS011;7163;50.626;12.922;2023-02-19T18:50:01;23.27;;;15.50;;
14167;SDS011;7163;50.626;12.922;2023-02-19T18:55:01;24.70;;;14.17;;
14167;SDS011;7163;50.626;12.922;2023-02-19T19:00:03;15.30;;;9.70;;
14167;SDS011;7163;50.626;12.922;2023-02-19T19:05:05;17.57;;;9.40;;
14167;SDS011;7163;50.626;12.922;2023-02-19T19:10:06;13.57;;;8.00;;
14167;SDS011;7163;50.626;12.922;2023-02-19T19:15:07;18.00;;;9.67;;
14167;SDS011;7163;50.626;12.922;2023-02-19T19:20:08;19.13;;;10.30;;
14167;SDS011;7163;50.626;12.922;2023-02-19T19:25:09;15.87;;;8.97;;
14167;SDS011;7163;50.626;12.922;2023-02-19T19:30:09;18.40;;;10.77;;
14167;SDS011;7163;50.626;12.922;2023-02-19T19:35:10;17.83;;;10.33;;
14167;SDS011;7163;50.626;12.922;2023-02-19T19:40:11;18.50;;;11.03;;
14167;SDS011;7163;50.626;12.922;2023-02-19T19:45:12;19.47;;;11.90;;
14167;SDS011;7163;50.626;12.922;2023-02-19T19:50:14;21.43;;;12.43;;
14167;SDS011;7163;50.626;12.922;2023-02-19T19:55:15;18.57;;;10.37;;
14167;SDS011;7163;50.626;12.922;2023-02-19T20:00:20;16.73;;;9.47;;
14167;SDS011;7163;50.626;12.922;2023-02-19T20:05:22;20.70;;;11.07;;
14167;SDS011;7163;50.626;12.922;2023-02-19T20:10:22;22.33;;;11.73;;
14167;SDS011;7163;50.626;12.922;2023-02-19T20:15:23;20.20;;;11.33;;
14167;SDS011;7163;50.626;12.922;2023-02-19T20:20:23;22.90;;;12.47;;
14167;SDS011;7163;50.626;12.922;2023-02-19T20:25:26;19.57;;;11.00;;
14167;SDS011;7163;50.626;12.922;2023-02-19T20:30:27;19.23;;;11.77;;
14167;SDS011;7163;50.626;12.922;2023-02-19T20:35:27;22.00;;;11.77;;
14167;SDS011;7163;50.626;12.922;2023-02-19T20:40:28;14.53;;;9.17;;
14167;SDS011;7163;50.626;12.922;2023-02-19T20:45:30;14.60;;;8.47;;
14167;SDS011;7163;50.626;12.922;2023-02-19T20:50:30;12.63;;;7.20;;
14167;SDS011;7163;50.626;12.922;2023-02-19T20:55:31;9.07;;;6.00;;
14167;SDS011;7163;50.626;12.922;2023-02-19T21:00:31;7.90;;;4.97;;
14167;SDS011;7163;50.626;12.922;2023-02-19T21:05:32;9.47;;;4.93;;
14167;SDS011;7163;50.626;12.922;2023-02-19T21:10:32;8.03;;;5.10;;
14167;SDS011;7163;50.626;12.922;2023-02-19T21:15:33;12.20;;;6.80;;
14167;SDS011;7163;50.626;12.922;2023-02-19T21:20:34;15.10;;;8.03;;
14167;SDS011;7163;50.626;12.922;2023-02-19T21:25:35;12.20;;;8.13;;
14167;SDS011;7163;50.626;12.922;2023-02-19T21:30:35;13.23;;;8.53;;
14167;SDS011;7163;50.626;12.922;2023-02-19T21:35:35;14.97;;;8.93;;
14167;SDS011;7163;50.626;12.922;2023-02-19T21:40:36;14.70;;;9.47;;
14167;SDS011;7163;50.626;12.922;2023-02-19T21:45:36;12.67;;;8.60;;
14167;SDS011;7163;50.626;12.922;2023-02-19T21:50:37;19.30;;;9.43;;
14167;SDS011;7163;50.626;12.922;2023-02-19T21:55:37;13.07;;;8.63;;
14167;SDS011;7163;50.626;12.922;2023-02-19T22:00:39;15.00;;;8.43;;
14167;SDS011;7163;50.626;12.922;2023-02-19T22:05:39;13.50;;;8.83;;
14167;SDS011;7163;50.626;12.922;2023-02-19T22:10:41;14.13;;;9.13;;
14167;SDS011;7163;50.626;12.922;2023-02-19T22:15:41;14.47;;;8.50;;
14167;SDS011;7163;50.626;12.922;2023-02-19T22:20:44;14.13;;;8.90;;
14167;SDS011;7163;50.626;12.922;2023-02-19T22:25:44;14.17;;;8.60;;
14167;SDS011;7163;50.626;12.922;2023-02-19T22:30:45;19.37;;;10.33;;
14167;SDS011;7163;50.626;12.922;2023-02-19T22:35:45;14.37;;;8.90;;
14167;SDS011;7163;50.626;12.922;2023-02-19T22:40:45;13.83;;;8.60;;
14167;SDS011;7163;50.626;12.922;2023-02-19T22:45:46;14.27;;;8.20;;
14167;SDS011;7163;50.626;12.922;2023-02-19T22:50:46;17.00;;;9.57;;
14167;SDS011;7163;50.626;12.922;2023-02-19T22:55:47;13.50;;;8.20;;
14167;SDS011;7163;50.626;12.922;2023-02-19T23:00:47;15.07;;;8.97;;
14167;SDS011;7163;50.626;12.922;2023-02-19T23:05:48;12.13;;;7.20;;
14167;SDS011;7163;50.626;12.922;2023-02-19T23:10:48;12.13;;;7.83;;
14167;SDS011;7163;50.626;12.922;2023-02-19T23:15:49;11.23;;;6.83;;
14167;SDS011;7163;50.626;12.922;2023-02-19T23:20:49;9.00;;;5.80;;
14167;SDS011;7163;50.626;12.922;2023-02-19T23:25:49;7.70;;;5.33;;
14167;SDS011;7163;50.626;12.922;2023-02-19T23:30:50;7.97;;;5.10;;
14167;SDS011;7163;50.626;12.922;2023-02-19T23:35:50;8.23;;;5.17;;
14167;SDS011;7163;50.626;12.922;2023-02-19T23:40:51;8.27;;;5.20;;
14167;SDS011;7163;50.626;12.922;2023-02-19T23:45:51;9.07;;;4.67;;
14167;SDS011;7163;50.626;12.922;2023-02-19T23:50:52;10.47;;;5.27;;
14167;SDS011;7163;50.626;12.922;2023-02-19T23:55:52;9.97;;;5.67;;
